sensor_id;sensor_type;location;lat;lon;timestamp;P1;durP1;ratioP1;P2;durP2;ratioP2
53674;SDS011;39574;50.534;8.500;2023-03-14T00:03:19;3.1;;;1.1;;
53674;SDS011;39574;50.534;8.500;2023-03-14T00:08:18;3.3;;;1.2;;
53674;SDS011;39574;50.534;8.500;2023-03-14T00:13:17;3.1;;;1.3;;
53674;SDS011;39574;50.534;8.500;2023-03-14T00:18:18;4.6;;;1.4;;
53674;SDS011;39574;50.534;8.500;2023-03-14T00:23:15;4.7;;;1.3;;
53674;SDS011;39574;50.534;8.500;2023-03-14T00:28:14;5.1;;;1.3;;
53674;SDS011;39574;50.534;8.500;2023-03-14T00:33:13;4.5;;;1.3;;
53674;SDS011;39574;50.534;8.500;2023-03-14T00:38:12;4.2;;;1.4;;
53674;SDS011;39574;50.534;8.500;2023-03-14T00:43:11;4.6;;;1.5;;
53674;SDS011;39574;50.534;8.500;2023-03-14T00:48:10;4.4;;;1.5;;
53674;SDS011;39574;50.534;8.500;2023-03-14T00:53:09;4.5;;;1.4;;
53674;SDS011;39574;50.534;8.500;2023-03-14T00:58:08;4.5;;;1.5;;
53674;SDS011;39574;50.534;8.500;2023-03-14T01:03:07;5.1;;;1.6;;
53674;SDS011;39574;50.534;8.500;2023-03-14T01:08:06;4.8;;;1.6;;
53674;SDS011;39574;50.534;8.500;2023-03-14T01:13:05;5.7;;;1.5;;
53674;SDS011;39574;50.534;8.500;2023-03-14T01:18:04;5.8;;;1.5;;
53674;SDS011;39574;50.534;8.500;2023-03-14T01:23:03;7.0;;;1.7;;
53674;SDS011;39574;50.534;8.500;2023-03-14T01:28:02;6.9;;;1.9;;
53674;SDS011;39574;50.534;8.500;2023-03-14T01:33:02;7.0;;;2.0;;
53674;SDS011;39574;50.534;8.500;2023-03-14T01:38:00;6.8;;;2.0;;
53674;SDS011;39574;50.534;8.500;2023-03-14T01:43:05;6.2;;;2.2;;
53674;SDS011;39574;50.534;8.500;2023-03-14T01:47:58;5.8;;;2.3;;
53674;SDS011;39574;50.534;8.500;2023-03-14T01:52:57;6.3;;;2.4;;
53674;SDS011;39574;50.534;8.500;2023-03-14T01:57:58;6.6;;;2.5;;
53674;SDS011;39574;50.534;8.500;2023-03-14T02:02:57;6.5;;;2.5;;
53674;SDS011;39574;50.534;8.500;2023-03-14T02:07:55;7.2;;;2.4;;
53674;SDS011;39574;50.534;8.500;2023-03-14T02:12:53;7.0;;;2.3;;
53674;SDS011;39574;50.534;8.500;2023-03-14T02:17:52;6.7;;;2.1;;
53674;SDS011;39574;50.534;8.500;2023-03-14T02:22:54;6.9;;;2.3;;
53674;SDS011;39574;50.534;8.500;2023-03-14T02:27:53;6.2;;;2.2;;
53674;SDS011;39574;50.534;8.500;2023-03-14T02:32:49;6.0;;;2.1;;
53674;SDS011;39574;50.534;8.500;2023-03-14T02:37:49;5.7;;;2.1;;
53674;SDS011;39574;50.534;8.500;2023-03-14T02:42:47;5.8;;;2.0;;
53674;SDS011;39574;50.534;8.500;2023-03-14T02:47:46;5.7;;;2.0;;
53674;SDS011;39574;50.534;8.500;2023-03-14T02:52:46;5.3;;;1.9;;
53674;SDS011;39574;50.534;8.500;2023-03-14T02:57:47;6.0;;;1.8;;
53674;SDS011;39574;50.534;8.500;2023-03-14T03:02:43;6.4;;;2.1;;
53674;SDS011;39574;50.534;8.500;2023-03-14T03:07:42;6.5;;;1.9;;
53674;SDS011;39574;50.534;8.500;2023-03-14T03:12:41;6.5;;;2.0;;
53674;SDS011;39574;50.534;8.500;2023-03-14T03:17:40;6.0;;;1.9;;
53674;SDS011;39574;50.534;8.500;2023-03-14T03:22:39;7.8;;;1.9;;
53674;SDS011;39574;50.534;8.500;2023-03-14T03:27:38;6.8;;;1.8;;
53674;SDS011;39574;50.534;8.500;2023-03-14T03:32:39;6.3;;;1.7;;
53674;SDS011;39574;50.534;8.500;2023-03-14T03:37:36;6.5;;;1.8;;
53674;SDS011;39574;50.534;8.500;2023-03-14T03:42:35;5.7;;;1.7;;
53674;SDS011;39574;50.534;8.500;2023-03-14T03:47:34;5.7;;;1.6;;
53674;SDS011;39574;50.534;8.500;2023-03-14T03:52:33;6.8;;;1.6;;
53674;SDS011;39574;50.534;8.500;2023-03-14T04:02:31;6.8;;;1.7;;
53674;SDS011;39574;50.534;8.500;2023-03-14T04:07:31;6.5;;;1.7;;
53674;SDS011;39574;50.534;8.500;2023-03-14T04:12:29;5.3;;;1.6;;
53674;SDS011;39574;50.534;8.500;2023-03-14T04:17:28;5.6;;;1.5;;
53674;SDS011;39574;50.534;8.500;2023-03-14T04:22:27;6.2;;;1.5;;
53674;SDS011;39574;50.534;8.500;2023-03-14T04:27:26;5.8;;;1.4;;
53674;SDS011;39574;50.534;8.500;2023-03-14T04:32:25;5.4;;;1.4;;
53674;SDS011;39574;50.534;8.500;2023-03-14T04:37:24;5.1;;;1.4;;
53674;SDS011;39574;50.534;8.500;2023-03-14T04:47:22;4.5;;;1.2;;
53674;SDS011;39574;50.534;8.500;2023-03-14T04:52:21;4.0;;;1.2;;
53674;SDS011;39574;50.534;8.500;2023-03-14T04:57:20;3.5;;;1.1;;
53674;SDS011;39574;50.534;8.500;2023-03-14T05:02:19;3.3;;;1.1;;
53674;SDS011;39574;50.534;8.500;2023-03-14T05:07:18;3.4;;;1.1;;
53674;SDS011;39574;50.534;8.500;2023-03-14T05:12:17;3.5;;;1.1;;
53674;SDS011;39574;50.534;8.500;2023-03-14T05:17:16;3.6;;;1.1;;
53674;SDS011;39574;50.534;8.500;2023-03-14T05:22:17;4.0;;;1.2;;
53674;SDS011;39574;50.534;8.500;2023-03-14T05:27:14;4.2;;;1.2;;
53674;SDS011;39574;50.534;8.500;2023-03-14T05:32:13;4.0;;;1.1;;
53674;SDS011;39574;50.534;8.500;2023-03-14T05:37:12;3.2;;;0.9;;
53674;SDS011;39574;50.534;8.500;2023-03-14T05:42:11;3.3;;;0.9;;
53674;SDS011;39574;50.534;8.500;2023-03-14T05:47:11;3.5;;;0.9;;
53674;SDS011;39574;50.534;8.500;2023-03-14T05:52:11;3.2;;;0.8;;
53674;SDS011;39574;50.534;8.500;2023-03-14T05:57:08;3.4;;;0.8;;
53674;SDS011;39574;50.534;8.500;2023-03-14T06:02:07;3.3;;;0.8;;
53674;SDS011;39574;50.534;8.500;2023-03-14T06:07:07;3.1;;;0.8;;
53674;SDS011;39574;50.534;8.500;2023-03-14T06:12:06;2.5;;;0.7;;
53674;SDS011;39574;50.534;8.500;2023-03-14T06:17:05;2.5;;;0.7;;
53674;SDS011;39574;50.534;8.500;2023-03-14T06:22:04;2.4;;;0.7;;
53674;SDS011;39574;50.534;8.500;2023-03-14T06:27:03;2.5;;;0.6;;
53674;SDS011;39574;50.534;8.500;2023-03-14T06:32:02;2.3;;;0.6;;
53674;SDS011;39574;50.534;8.500;2023-03-14T06:37:01;2.3;;;0.6;;
53674;SDS011;39574;50.534;8.500;2023-03-14T06:42:00;2.4;;;0.5;;
53674;SDS011;39574;50.534;8.500;2023-03-14T06:46:59;2.2;;;0.5;;
53674;SDS011;39574;50.534;8.500;2023-03-14T06:51:58;1.8;;;0.5;;
53674;SDS011;39574;50.534;8.500;2023-03-14T06:56:59;1.8;;;0.6;;
53674;SDS011;39574;50.534;8.500;2023-03-14T07:01:56;1.6;;;0.5;;
53674;SDS011;39574;50.534;8.500;2023-03-14T07:06:55;1.7;;;0.5;;
53674;SDS011;39574;50.534;8.500;2023-03-14T07:11:54;2.1;;;0.6;;
53674;SDS011;39574;50.534;8.500;2023-03-14T07:16:53;2.8;;;0.7;;
53674;SDS011;39574;50.534;8.500;2023-03-14T07:21:52;2.4;;;0.6;;
53674;SDS011;39574;50.534;8.500;2023-03-14T07:31:53;2.4;;;0.6;;
53674;SDS011;39574;50.534;8.500;2023-03-14T07:36:49;2.1;;;0.5;;
53674;SDS011;39574;50.534;8.500;2023-03-14T07:41:48;2.3;;;0.5;;
53674;SDS011;39574;50.534;8.500;2023-03-14T07:46:47;2.1;;;0.5;;
53674;SDS011;39574;50.534;8.500;2023-03-14T07:51:47;1.8;;;0.5;;
53674;SDS011;39574;50.534;8.500;2023-03-14T07:56:45;1.9;;;0.5;;
53674;SDS011;39574;50.534;8.500;2023-03-14T08:01:44;2.0;;;0.6;;
53674;SDS011;39574;50.534;8.500;2023-03-14T08:06:43;1.9;;;0.6;;
53674;SDS011;39574;50.534;8.500;2023-03-14T08:11:42;1.7;;;0.6;;
53674;SDS011;39574;50.534;8.500;2023-03-14T08:16:41;1.9;;;0.8;;
53674;SDS011;39574;50.534;8.500;2023-03-14T08:21:40;1.9;;;0.7;;
53674;SDS011;39574;50.534;8.500;2023-03-14T08:26:39;1.6;;;0.7;;
53674;SDS011;39574;50.534;8.500;2023-03-14T08:31:38;1.8;;;0.7;;
53674;SDS011;39574;50.534;8.500;2023-03-14T08:36:37;1.8;;;0.6;;
53674;SDS011;39574;50.534;8.500;2023-03-14T08:41:38;1.8;;;0.6;;
53674;SDS011;39574;50.534;8.500;2023-03-14T08:46:35;1.8;;;0.6;;
53674;SDS011;39574;50.534;8.500;2023-03-14T08:51:34;1.5;;;0.5;;
53674;SDS011;39574;50.534;8.500;2023-03-14T08:56:34;1.7;;;0.5;;
53674;SDS011;39574;50.534;8.500;2023-03-14T09:01:32;1.8;;;0.7;;
53674;SDS011;39574;50.534;8.500;2023-03-14T09:06:32;1.5;;;0.6;;
53674;SDS011;39574;50.534;8.500;2023-03-14T09:11:31;1.6;;;0.5;;
53674;SDS011;39574;50.534;8.500;2023-03-14T09:16:30;1.3;;;0.5;;
53674;SDS011;39574;50.534;8.500;2023-03-14T09:21:29;1.3;;;0.4;;
53674;SDS011;39574;50.534;8.500;2023-03-14T09:26:28;12.3;;;0.7;;
53674;SDS011;39574;50.534;8.500;2023-03-14T09:31:27;12.1;;;0.8;;
53674;SDS011;39574;50.534;8.500;2023-03-14T09:36:26;8.7;;;0.6;;
53674;SDS011;39574;50.534;8.500;2023-03-14T09:41:25;5.5;;;0.5;;
53674;SDS011;39574;50.534;8.500;2023-03-14T09:46:24;2.1;;;0.5;;
53674;SDS011;39574;50.534;8.500;2023-03-14T09:51:23;1.5;;;0.5;;
53674;SDS011;39574;50.534;8.500;2023-03-14T09:56:23;1.3;;;0.5;;
53674;SDS011;39574;50.534;8.500;2023-03-14T10:01:22;1.0;;;0.5;;
53674;SDS011;39574;50.534;8.500;2023-03-14T10:06:20;1.1;;;0.5;;
53674;SDS011;39574;50.534;8.500;2023-03-14T10:11:19;0.9;;;0.4;;
53674;SDS011;39574;50.534;8.500;2023-03-14T10:16:18;0.9;;;0.4;;
53674;SDS011;39574;50.534;8.500;2023-03-14T10:21:20;0.9;;;0.4;;
53674;SDS011;39574;50.534;8.500;2023-03-14T10:26:17;1.4;;;0.4;;
53674;SDS011;39574;50.534;8.500;2023-03-14T10:31:15;1.4;;;0.3;;
53674;SDS011;39574;50.534;8.500;2023-03-14T10:36:16;1.2;;;0.3;;
53674;SDS011;39574;50.534;8.500;2023-03-14T10:41:15;1.1;;;0.4;;
53674;SDS011;39574;50.534;8.500;2023-03-14T10:46:14;1.2;;;0.5;;
53674;SDS011;39574;50.534;8.500;2023-03-14T10:51:17;1.0;;;0.5;;
53674;SDS011;39574;50.534;8.500;2023-03-14T10:56:11;0.9;;;0.4;;
53674;SDS011;39574;50.534;8.500;2023-03-14T11:01:28;0.7;;;0.3;;
53674;SDS011;39574;50.534;8.500;2023-03-14T11:06:09;0.9;;;0.3;;
53674;SDS011;39574;50.534;8.500;2023-03-14T11:11:11;1.1;;;0.3;;
53674;SDS011;39574;50.534;8.500;2023-03-14T11:16:09;1.0;;;0.3;;
53674;SDS011;39574;50.534;8.500;2023-03-14T11:21:08;1.2;;;0.3;;
53674;SDS011;39574;50.534;8.500;2023-03-14T11:26:08;1.2;;;0.3;;
53674;SDS011;39574;50.534;8.500;2023-03-14T11:31:06;1.4;;;0.4;;
53674;SDS011;39574;50.534;8.500;2023-03-14T11:36:04;1.8;;;0.4;;
53674;SDS011;39574;50.534;8.500;2023-03-14T11:41:02;1.8;;;0.4;;
53674;SDS011;39574;50.534;8.500;2023-03-14T11:46:03;1.6;;;0.5;;
53674;SDS011;39574;50.534;8.500;2023-03-14T11:51:00;1.2;;;0.5;;
53674;SDS011;39574;50.534;8.500;2023-03-14T11:55:59;1.3;;;0.7;;
53674;SDS011;39574;50.534;8.500;2023-03-14T12:00:58;1.7;;;0.8;;
53674;SDS011;39574;50.534;8.500;2023-03-14T12:05:59;1.5;;;0.7;;
53674;SDS011;39574;50.534;8.500;2023-03-14T12:10:58;1.5;;;0.8;;
53674;SDS011;39574;50.534;8.500;2023-03-14T12:15:55;2.2;;;1.1;;
53674;SDS011;39574;50.534;8.500;2023-03-14T12:20:54;2.1;;;1.1;;
53674;SDS011;39574;50.534;8.500;2023-03-14T12:26:13;2.5;;;1.1;;
53674;SDS011;39574;50.534;8.500;2023-03-14T12:30:51;2.2;;;1.1;;
53674;SDS011;39574;50.534;8.500;2023-03-14T12:35:50;1.9;;;1.1;;
53674;SDS011;39574;50.534;8.500;2023-03-14T12:40:50;2.3;;;1.0;;
53674;SDS011;39574;50.534;8.500;2023-03-14T12:46:05;1.9;;;0.9;;
53674;SDS011;39574;50.534;8.500;2023-03-14T12:50:53;1.6;;;0.8;;
53674;SDS011;39574;50.534;8.500;2023-03-14T12:55:46;1.3;;;0.7;;
53674;SDS011;39574;50.534;8.500;2023-03-14T13:00:44;1.4;;;0.7;;
53674;SDS011;39574;50.534;8.500;2023-03-14T13:05:52;2.7;;;1.9;;
53674;SDS011;39574;50.534;8.500;2023-03-14T13:10:44;2.6;;;1.8;;
53674;SDS011;39574;50.534;8.500;2023-03-14T13:15:42;2.2;;;1.5;;
53674;SDS011;39574;50.534;8.500;2023-03-14T13:20:42;2.4;;;1.3;;
53674;SDS011;39574;50.534;8.500;2023-03-14T13:25:39;2.3;;;0.9;;
53674;SDS011;39574;50.534;8.500;2023-03-14T13:30:39;2.3;;;1.1;;
53674;SDS011;39574;50.534;8.500;2023-03-14T13:35:39;2.3;;;1.2;;
53674;SDS011;39574;50.534;8.500;2023-03-14T13:40:36;4.0;;;1.3;;
53674;SDS011;39574;50.534;8.500;2023-03-14T13:45:51;3.2;;;1.1;;
53674;SDS011;39574;50.534;8.500;2023-03-14T13:50:33;2.7;;;1.0;;
53674;SDS011;39574;50.534;8.500;2023-03-14T13:55:32;2.3;;;1.0;;
53674;SDS011;39574;50.534;8.500;2023-03-14T14:00:31;2.0;;;1.3;;
53674;SDS011;39574;50.534;8.500;2023-03-14T14:05:30;1.7;;;1.1;;
53674;SDS011;39574;50.534;8.500;2023-03-14T14:10:29;1.3;;;0.9;;
53674;SDS011;39574;50.534;8.500;2023-03-14T14:15:28;3.6;;;1.6;;
53674;SDS011;39574;50.534;8.500;2023-03-14T14:20:28;4.0;;;1.8;;
53674;SDS011;39574;50.534;8.500;2023-03-14T14:25:26;3.7;;;1.6;;
53674;SDS011;39574;50.534;8.500;2023-03-14T14:30:28;3.4;;;1.4;;
53674;SDS011;39574;50.534;8.500;2023-03-14T14:35:24;2.6;;;1.1;;
53674;SDS011;39574;50.534;8.500;2023-03-14T14:40:23;2.4;;;0.9;;
53674;SDS011;39574;50.534;8.500;2023-03-14T14:45:22;2.0;;;0.9;;
53674;SDS011;39574;50.534;8.500;2023-03-14T14:50:21;2.1;;;0.9;;
53674;SDS011;39574;50.534;8.500;2023-03-14T14:55:19;2.2;;;0.8;;
53674;SDS011;39574;50.534;8.500;2023-03-14T15:00:19;1.6;;;0.6;;
53674;SDS011;39574;50.534;8.500;2023-03-14T15:05:17;1.8;;;0.6;;
53674;SDS011;39574;50.534;8.500;2023-03-14T15:10:16;1.5;;;0.6;;
53674;SDS011;39574;50.534;8.500;2023-03-14T15:15:14;1.5;;;0.7;;
53674;SDS011;39574;50.534;8.500;2023-03-14T15:20:14;1.4;;;0.8;;
53674;SDS011;39574;50.534;8.500;2023-03-14T15:25:12;1.7;;;0.8;;
53674;SDS011;39574;50.534;8.500;2023-03-14T15:30:12;1.8;;;0.8;;
53674;SDS011;39574;50.534;8.500;2023-03-14T15:35:10;1.9;;;0.9;;
53674;SDS011;39574;50.534;8.500;2023-03-14T15:40:09;1.7;;;0.8;;
53674;SDS011;39574;50.534;8.500;2023-03-14T15:45:08;1.8;;;0.9;;
53674;SDS011;39574;50.534;8.500;2023-03-14T15:50:08;1.9;;;0.9;;
53674;SDS011;39574;50.534;8.500;2023-03-14T15:55:05;2.1;;;0.9;;
53674;SDS011;39574;50.534;8.500;2023-03-14T16:00:04;2.2;;;1.0;;
53674;SDS011;39574;50.534;8.500;2023-03-14T16:05:03;1.9;;;0.9;;
53674;SDS011;39574;50.534;8.500;2023-03-14T16:10:03;1.8;;;0.9;;
53674;SDS011;39574;50.534;8.500;2023-03-14T16:15:01;2.6;;;0.9;;
53674;SDS011;39574;50.534;8.500;2023-03-14T16:20:00;2.6;;;1.0;;
53674;SDS011;39574;50.534;8.500;2023-03-14T16:24:58;2.5;;;0.8;;
53674;SDS011;39574;50.534;8.500;2023-03-14T16:29:58;2.9;;;0.8;;
53674;SDS011;39574;50.534;8.500;2023-03-14T16:34:56;2.7;;;0.9;;
53674;SDS011;39574;50.534;8.500;2023-03-14T16:39:55;2.4;;;0.9;;
53674;SDS011;39574;50.534;8.500;2023-03-14T16:44:53;2.5;;;1.0;;
53674;SDS011;39574;50.534;8.500;2023-03-14T16:49:52;2.4;;;1.1;;
53674;SDS011;39574;50.534;8.500;2023-03-14T16:54:51;2.4;;;1.2;;
53674;SDS011;39574;50.534;8.500;2023-03-14T16:59:50;3.2;;;1.3;;
53674;SDS011;39574;50.534;8.500;2023-03-14T17:04:49;3.3;;;1.5;;
53674;SDS011;39574;50.534;8.500;2023-03-14T17:09:49;3.9;;;1.9;;
53674;SDS011;39574;50.534;8.500;2023-03-14T17:14:47;4.8;;;2.4;;
53674;SDS011;39574;50.534;8.500;2023-03-14T17:19:45;5.6;;;2.8;;
53674;SDS011;39574;50.534;8.500;2023-03-14T17:24:44;5.8;;;3.2;;
53674;SDS011;39574;50.534;8.500;2023-03-14T17:29:43;5.7;;;2.9;;
53674;SDS011;39574;50.534;8.500;2023-03-14T17:34:42;5.2;;;2.6;;
53674;SDS011;39574;50.534;8.500;2023-03-14T17:39:41;5.1;;;2.4;;
53674;SDS011;39574;50.534;8.500;2023-03-14T17:44:39;5.4;;;2.4;;
53674;SDS011;39574;50.534;8.500;2023-03-14T17:49:38;7.3;;;3.6;;
53674;SDS011;39574;50.534;8.500;2023-03-14T17:54:37;7.0;;;3.5;;
53674;SDS011;39574;50.534;8.500;2023-03-14T17:59:36;7.6;;;3.5;;
53674;SDS011;39574;50.534;8.500;2023-03-14T18:04:35;7.9;;;3.4;;
53674;SDS011;39574;50.534;8.500;2023-03-14T18:09:34;7.9;;;2.9;;
53674;SDS011;39574;50.534;8.500;2023-03-14T18:14:33;9.5;;;3.1;;
53674;SDS011;39574;50.534;8.500;2023-03-14T18:19:31;12.8;;;5.6;;
53674;SDS011;39574;50.534;8.500;2023-03-14T18:24:30;14.3;;;7.1;;
53674;SDS011;39574;50.534;8.500;2023-03-14T18:29:29;11.6;;;6.1;;
53674;SDS011;39574;50.534;8.500;2023-03-14T18:34:28;12.3;;;6.7;;
53674;SDS011;39574;50.534;8.500;2023-03-14T18:39:27;10.6;;;5.3;;
53674;SDS011;39574;50.534;8.500;2023-03-14T18:44:26;9.6;;;4.5;;
53674;SDS011;39574;50.534;8.500;2023-03-14T18:49:24;11.0;;;4.6;;
53674;SDS011;39574;50.534;8.500;2023-03-14T18:54:23;15.6;;;7.3;;
53674;SDS011;39574;50.534;8.500;2023-03-14T18:59:22;16.5;;;8.3;;
53674;SDS011;39574;50.534;8.500;2023-03-14T19:04:21;17.2;;;9.5;;
53674;SDS011;39574;50.534;8.500;2023-03-14T19:09:19;17.1;;;9.8;;
53674;SDS011;39574;50.534;8.500;2023-03-14T19:14:18;15.5;;;8.9;;
53674;SDS011;39574;50.534;8.500;2023-03-14T19:19:17;14.4;;;8.6;;
53674;SDS011;39574;50.534;8.500;2023-03-14T19:24:17;13.7;;;8.2;;
53674;SDS011;39574;50.534;8.500;2023-03-14T19:29:15;13.3;;;7.3;;
53674;SDS011;39574;50.534;8.500;2023-03-14T19:34:14;15.0;;;7.8;;
53674;SDS011;39574;50.534;8.500;2023-03-14T19:39:12;16.1;;;8.3;;
53674;SDS011;39574;50.534;8.500;2023-03-14T19:44:11;15.7;;;8.1;;
53674;SDS011;39574;50.534;8.500;2023-03-14T19:49:10;19.5;;;10.6;;
53674;SDS011;39574;50.534;8.500;2023-03-14T19:54:09;17.8;;;9.8;;
53674;SDS011;39574;50.534;8.500;2023-03-14T19:59:07;17.3;;;9.0;;
53674;SDS011;39574;50.534;8.500;2023-03-14T20:04:06;16.2;;;7.7;;
53674;SDS011;39574;50.534;8.500;2023-03-14T20:09:05;22.7;;;10.9;;
53674;SDS011;39574;50.534;8.500;2023-03-14T20:14:04;19.8;;;9.7;;
53674;SDS011;39574;50.534;8.500;2023-03-14T20:19:03;17.7;;;8.3;;
53674;SDS011;39574;50.534;8.500;2023-03-14T20:24:02;16.6;;;8.4;;
53674;SDS011;39574;50.534;8.500;2023-03-14T20:29:00;13.4;;;5.8;;
53674;SDS011;39574;50.534;8.500;2023-03-14T20:33:59;12.2;;;4.7;;
53674;SDS011;39574;50.534;8.500;2023-03-14T20:38:58;11.4;;;3.6;;
53674;SDS011;39574;50.534;8.500;2023-03-14T20:48:55;11.0;;;2.9;;
53674;SDS011;39574;50.534;8.500;2023-03-14T20:53:54;11.0;;;2.7;;
53674;SDS011;39574;50.534;8.500;2023-03-14T20:58:53;12.1;;;3.3;;
53674;SDS011;39574;50.534;8.500;2023-03-14T21:03:53;11.6;;;3.1;;
53674;SDS011;39574;50.534;8.500;2023-03-14T21:08:53;10.0;;;2.8;;
53674;SDS011;39574;50.534;8.500;2023-03-14T21:13:49;10.3;;;2.7;;
53674;SDS011;39574;50.534;8.500;2023-03-14T21:18:48;10.1;;;2.4;;
53674;SDS011;39574;50.534;8.500;2023-03-14T21:23:47;10.1;;;2.3;;
53674;SDS011;39574;50.534;8.500;2023-03-14T21:28:46;9.9;;;2.3;;
53674;SDS011;39574;50.534;8.500;2023-03-14T21:38:43;8.4;;;2.3;;
53674;SDS011;39574;50.534;8.500;2023-03-14T21:43:42;8.7;;;2.2;;
53674;SDS011;39574;50.534;8.500;2023-03-14T21:48:41;8.2;;;1.9;;
53674;SDS011;39574;50.534;8.500;2023-03-14T21:53:39;7.5;;;1.9;;
53674;SDS011;39574;50.534;8.500;2023-03-14T21:58:38;7.1;;;1.9;;
53674;SDS011;39574;50.534;8.500;2023-03-14T22:03:37;8.2;;;2.2;;
53674;SDS011;39574;50.534;8.500;2023-03-14T22:08:36;9.4;;;2.6;;
53674;SDS011;39574;50.534;8.500;2023-03-14T22:13:35;11.4;;;3.3;;
53674;SDS011;39574;50.534;8.500;2023-03-14T22:18:33;13.2;;;3.9;;
53674;SDS011;39574;50.534;8.500;2023-03-14T22:23:32;11.3;;;3.4;;
53674;SDS011;39574;50.534;8.500;2023-03-14T22:28:31;10.5;;;3.3;;
53674;SDS011;39574;50.534;8.500;2023-03-14T22:33:29;9.7;;;3.2;;
53674;SDS011;39574;50.534;8.500;2023-03-14T22:38:28;10.3;;;3.0;;
53674;SDS011;39574;50.534;8.500;2023-03-14T22:43:27;11.8;;;3.3;;
53674;SDS011;39574;50.534;8.500;2023-03-14T22:48:26;12.5;;;3.4;;
53674;SDS011;39574;50.534;8.500;2023-03-14T22:53:25;11.4;;;3.0;;
53674;SDS011;39574;50.534;8.500;2023-03-14T22:58:23;10.6;;;2.6;;
53674;SDS011;39574;50.534;8.500;2023-03-14T23:03:22;11.7;;;2.4;;
53674;SDS011;39574;50.534;8.500;2023-03-14T23:08:21;11.1;;;2.5;;
53674;SDS011;39574;50.534;8.500;2023-03-14T23:13:19;10.8;;;2.4;;
53674;SDS011;39574;50.534;8.500;2023-03-14T23:18:18;9.9;;;2.3;;
53674;SDS011;39574;50.534;8.500;2023-03-14T23:23:17;9.2;;;2.1;;
53674;SDS011;39574;50.534;8.500;2023-03-14T23:28:15;9.7;;;2.1;;
53674;SDS011;39574;50.534;8.500;2023-03-14T23:33:14;9.7;;;2.4;;
53674;SDS011;39574;50.534;8.500;2023-03-14T23:38:15;10.1;;;2.5;;
53674;SDS011;39574;50.534;8.500;2023-03-14T23:43:12;12.9;;;2.9;;
53674;SDS011;39574;50.534;8.500;2023-03-14T23:48:11;11.8;;;2.9;;
53674;SDS011;39574;50.534;8.500;2023-03-14T23:53:08;10.6;;;2.6;;
53674;SDS011;39574;50.534;8.500;2023-03-14T23:58:07;9.2;;;2.6;;
